sensor_id;sensor_type;location;lat;lon;timestamp;P1;durP1;ratioP1;P2;durP2;ratioP2
6193;SDS011;3130;41.564;23.280;2024-02-28T00:02:27;9.07;;;7.33;;
6193;SDS011;3130;41.564;23.280;2024-02-28T00:04:55;11.37;;;6.70;;
6193;SDS011;3130;41.564;23.280;2024-02-28T00:07:24;11.63;;;7.80;;
6193;SDS011;3130;41.564;23.280;2024-02-28T00:09:51;10.67;;;7.27;;
6193;SDS011;3130;41.564;23.280;2024-02-28T00:12:22;9.40;;;7.47;;
6193;SDS011;3130;41.564;23.280;2024-02-28T00:14:51;12.20;;;7.30;;
6193;SDS011;3130;41.564;23.280;2024-02-28T00:17:18;9.43;;;6.73;;
6193;SDS011;3130;41.564;23.280;2024-02-28T00:19:47;7.60;;;6.80;;
6193;SDS011;3130;41.564;23.280;2024-02-28T00:22:14;7.93;;;6.23;;
6193;SDS011;3130;41.564;23.280;2024-02-28T00:24:42;9.50;;;7.57;;
6193;SDS011;3130;41.564;23.280;2024-02-28T00:27:09;10.13;;;7.43;;
6193;SDS011;3130;41.564;23.280;2024-02-28T00:29:37;7.63;;;5.53;;
6193;SDS011;3130;41.564;23.280;2024-02-28T00:32:04;10.00;;;6.20;;
6193;SDS011;3130;41.564;23.280;2024-02-28T00:34:32;9.60;;;7.30;;
6193;SDS011;3130;41.564;23.280;2024-02-28T00:37:01;6.73;;;5.77;;
6193;SDS011;3130;41.564;23.280;2024-02-28T00:39:28;7.57;;;5.83;;
6193;SDS011;3130;41.564;23.280;2024-02-28T00:41:56;7.07;;;6.20;;
6193;SDS011;3130;41.564;23.280;2024-02-28T00:44:23;7.00;;;6.23;;
6193;SDS011;3130;41.564;23.280;2024-02-28T00:46:50;9.07;;;6.47;;
6193;SDS011;3130;41.564;23.280;2024-02-28T00:49:18;8.83;;;6.00;;
6193;SDS011;3130;41.564;23.280;2024-02-28T00:51:46;11.60;;;5.97;;
6193;SDS011;3130;41.564;23.280;2024-02-28T00:54:15;11.90;;;7.17;;
6193;SDS011;3130;41.564;23.280;2024-02-28T00:56:42;10.07;;;7.17;;
6193;SDS011;3130;41.564;23.280;2024-02-28T00:59:09;11.73;;;7.33;;
6193;SDS011;3130;41.564;23.280;2024-02-28T01:01:38;10.63;;;7.43;;
6193;SDS011;3130;41.564;23.280;2024-02-28T01:04:05;10.20;;;6.07;;
6193;SDS011;3130;41.564;23.280;2024-02-28T01:06:33;10.30;;;7.27;;
6193;SDS011;3130;41.564;23.280;2024-02-28T01:09:00;14.37;;;6.67;;
6193;SDS011;3130;41.564;23.280;2024-02-28T01:11:29;8.17;;;6.83;;
6193;SDS011;3130;41.564;23.280;2024-02-28T01:13:57;9.73;;;6.57;;
6193;SDS011;3130;41.564;23.280;2024-02-28T01:16:24;7.57;;;6.70;;
6193;SDS011;3130;41.564;23.280;2024-02-28T01:18:53;12.23;;;6.20;;
6193;SDS011;3130;41.564;23.280;2024-02-28T01:21:20;9.87;;;7.57;;
6193;SDS011;3130;41.564;23.280;2024-02-28T01:23:46;14.77;;;7.93;;
6193;SDS011;3130;41.564;23.280;2024-02-28T01:26:14;11.77;;;7.50;;
6193;SDS011;3130;41.564;23.280;2024-02-28T01:28:42;10.43;;;7.07;;
6193;SDS011;3130;41.564;23.280;2024-02-28T01:31:09;12.53;;;7.17;;
6193;SDS011;3130;41.564;23.280;2024-02-28T01:33:37;11.27;;;7.40;;
6193;SDS011;3130;41.564;23.280;2024-02-28T01:36:04;8.83;;;6.03;;
6193;SDS011;3130;41.564;23.280;2024-02-28T01:38:33;9.23;;;7.83;;
6193;SDS011;3130;41.564;23.280;2024-02-28T01:41:00;10.20;;;6.83;;
6193;SDS011;3130;41.564;23.280;2024-02-28T01:43:27;12.23;;;6.70;;
6193;SDS011;3130;41.564;23.280;2024-02-28T01:45:56;7.70;;;6.43;;
6193;SDS011;3130;41.564;23.280;2024-02-28T01:48:26;8.67;;;7.27;;
6193;SDS011;3130;41.564;23.280;2024-02-28T01:50:53;7.00;;;6.13;;
6193;SDS011;3130;41.564;23.280;2024-02-28T01:53:20;13.23;;;7.77;;
6193;SDS011;3130;41.564;23.280;2024-02-28T01:55:48;10.10;;;7.00;;
6193;SDS011;3130;41.564;23.280;2024-02-28T01:58:17;13.97;;;6.80;;
6193;SDS011;3130;41.564;23.280;2024-02-28T02:00:45;10.27;;;6.97;;
6193;SDS011;3130;41.564;23.280;2024-02-28T02:03:15;8.57;;;6.87;;
6193;SDS011;3130;41.564;23.280;2024-02-28T02:05:43;9.03;;;6.43;;
6193;SDS011;3130;41.564;23.280;2024-02-28T02:08:10;8.30;;;6.30;;
6193;SDS011;3130;41.564;23.280;2024-02-28T02:10:38;10.20;;;6.67;;
6193;SDS011;3130;41.564;23.280;2024-02-28T02:13:05;9.00;;;6.97;;
6193;SDS011;3130;41.564;23.280;2024-02-28T02:15:33;9.93;;;7.80;;
6193;SDS011;3130;41.564;23.280;2024-02-28T02:18:00;10.47;;;7.00;;
6193;SDS011;3130;41.564;23.280;2024-02-28T02:20:29;10.43;;;6.33;;
6193;SDS011;3130;41.564;23.280;2024-02-28T02:23:00;10.90;;;6.33;;
6193;SDS011;3130;41.564;23.280;2024-02-28T02:25:27;7.53;;;5.80;;
6193;SDS011;3130;41.564;23.280;2024-02-28T02:27:55;9.43;;;6.67;;
6193;SDS011;3130;41.564;23.280;2024-02-28T02:30:22;11.77;;;6.67;;
6193;SDS011;3130;41.564;23.280;2024-02-28T02:32:49;10.27;;;7.60;;
6193;SDS011;3130;41.564;23.280;2024-02-28T02:35:16;8.23;;;6.20;;
6193;SDS011;3130;41.564;23.280;2024-02-28T02:37:44;9.03;;;6.73;;
6193;SDS011;3130;41.564;23.280;2024-02-28T02:40:15;8.97;;;6.40;;
6193;SDS011;3130;41.564;23.280;2024-02-28T02:42:42;6.87;;;6.23;;
6193;SDS011;3130;41.564;23.280;2024-02-28T02:45:09;8.53;;;6.57;;
6193;SDS011;3130;41.564;23.280;2024-02-28T02:47:37;8.27;;;7.37;;
6193;SDS011;3130;41.564;23.280;2024-02-28T02:50:04;8.33;;;6.63;;
6193;SDS011;3130;41.564;23.280;2024-02-28T02:52:32;12.57;;;7.80;;
6193;SDS011;3130;41.564;23.280;2024-02-28T02:55:00;7.93;;;6.53;;
6193;SDS011;3130;41.564;23.280;2024-02-28T02:57:28;8.40;;;6.57;;
6193;SDS011;3130;41.564;23.280;2024-02-28T02:59:56;10.27;;;6.63;;
6193;SDS011;3130;41.564;23.280;2024-02-28T03:02:23;9.00;;;7.53;;
6193;SDS011;3130;41.564;23.280;2024-02-28T03:04:51;8.07;;;7.20;;
6193;SDS011;3130;41.564;23.280;2024-02-28T03:07:18;10.00;;;6.37;;
6193;SDS011;3130;41.564;23.280;2024-02-28T03:09:45;7.37;;;5.10;;
6193;SDS011;3130;41.564;23.280;2024-02-28T03:12:12;9.37;;;6.27;;
6193;SDS011;3130;41.564;23.280;2024-02-28T03:14:41;6.63;;;5.87;;
6193;SDS011;3130;41.564;23.280;2024-02-28T03:17:09;7.30;;;6.60;;
6193;SDS011;3130;41.564;23.280;2024-02-28T03:19:36;10.53;;;6.43;;
6193;SDS011;3130;41.564;23.280;2024-02-28T03:22:04;11.87;;;6.13;;
6193;SDS011;3130;41.564;23.280;2024-02-28T03:24:31;9.20;;;6.53;;
6193;SDS011;3130;41.564;23.280;2024-02-28T03:27:00;7.60;;;6.57;;
6193;SDS011;3130;41.564;23.280;2024-02-28T03:29:27;8.70;;;6.13;;
6193;SDS011;3130;41.564;23.280;2024-02-28T03:31:57;9.33;;;6.57;;
6193;SDS011;3130;41.564;23.280;2024-02-28T03:34:25;6.63;;;5.87;;
6193;SDS011;3130;41.564;23.280;2024-02-28T03:36:52;7.87;;;6.57;;
6193;SDS011;3130;41.564;23.280;2024-02-28T03:39:20;9.80;;;7.53;;
6193;SDS011;3130;41.564;23.280;2024-02-28T03:41:47;7.70;;;6.60;;
6193;SDS011;3130;41.564;23.280;2024-02-28T03:44:14;7.30;;;6.07;;
6193;SDS011;3130;41.564;23.280;2024-02-28T03:46:42;8.90;;;6.83;;
6193;SDS011;3130;41.564;23.280;2024-02-28T03:49:10;9.33;;;6.30;;
6193;SDS011;3130;41.564;23.280;2024-02-28T03:51:39;8.43;;;6.50;;
6193;SDS011;3130;41.564;23.280;2024-02-28T03:54:07;8.23;;;6.73;;
6193;SDS011;3130;41.564;23.280;2024-02-28T03:56:35;10.67;;;6.37;;
6193;SDS011;3130;41.564;23.280;2024-02-28T03:59:02;9.83;;;8.70;;
6193;SDS011;3130;41.564;23.280;2024-02-28T04:01:29;11.13;;;6.93;;
6193;SDS011;3130;41.564;23.280;2024-02-28T04:03:57;11.33;;;7.37;;
6193;SDS011;3130;41.564;23.280;2024-02-28T04:06:25;8.37;;;6.37;;
6193;SDS011;3130;41.564;23.280;2024-02-28T04:08:53;9.23;;;7.50;;
6193;SDS011;3130;41.564;23.280;2024-02-28T04:11:20;7.67;;;6.80;;
6193;SDS011;3130;41.564;23.280;2024-02-28T04:13:47;8.47;;;7.13;;
6193;SDS011;3130;41.564;23.280;2024-02-28T04:16:14;6.77;;;5.80;;
6193;SDS011;3130;41.564;23.280;2024-02-28T04:18:42;7.70;;;6.33;;
6193;SDS011;3130;41.564;23.280;2024-02-28T04:21:09;8.43;;;6.73;;
6193;SDS011;3130;41.564;23.280;2024-02-28T04:23:38;8.47;;;6.87;;
6193;SDS011;3130;41.564;23.280;2024-02-28T04:26:07;8.17;;;6.33;;
6193;SDS011;3130;41.564;23.280;2024-02-28T04:28:34;9.73;;;5.70;;
6193;SDS011;3130;41.564;23.280;2024-02-28T04:31:02;7.70;;;5.97;;
6193;SDS011;3130;41.564;23.280;2024-02-28T04:33:29;10.97;;;6.50;;
6193;SDS011;3130;41.564;23.280;2024-02-28T04:35:57;9.07;;;6.90;;
6193;SDS011;3130;41.564;23.280;2024-02-28T04:38:24;7.37;;;6.23;;
6193;SDS011;3130;41.564;23.280;2024-02-28T04:40:53;10.27;;;6.13;;
6193;SDS011;3130;41.564;23.280;2024-02-28T04:43:20;10.60;;;5.77;;
6193;SDS011;3130;41.564;23.280;2024-02-28T04:45:47;8.03;;;6.97;;
6193;SDS011;3130;41.564;23.280;2024-02-28T04:48:15;7.77;;;6.53;;
6193;SDS011;3130;41.564;23.280;2024-02-28T04:50:42;6.83;;;5.93;;
6193;SDS011;3130;41.564;23.280;2024-02-28T04:53:09;10.03;;;7.43;;
6193;SDS011;3130;41.564;23.280;2024-02-28T04:55:36;8.60;;;6.33;;
6193;SDS011;3130;41.564;23.280;2024-02-28T04:58:05;7.43;;;6.23;;
6193;SDS011;3130;41.564;23.280;2024-02-28T05:00:32;8.37;;;7.10;;
6193;SDS011;3130;41.564;23.280;2024-02-28T05:03:00;8.57;;;5.50;;
6193;SDS011;3130;41.564;23.280;2024-02-28T05:05:27;10.83;;;6.87;;
6193;SDS011;3130;41.564;23.280;2024-02-28T05:07:54;7.83;;;7.03;;
6193;SDS011;3130;41.564;23.280;2024-02-28T05:10:22;12.77;;;7.10;;
6193;SDS011;3130;41.564;23.280;2024-02-28T05:12:49;9.53;;;6.93;;
6193;SDS011;3130;41.564;23.280;2024-02-28T05:15:18;10.83;;;7.40;;
6193;SDS011;3130;41.564;23.280;2024-02-28T05:17:46;7.93;;;7.00;;
6193;SDS011;3130;41.564;23.280;2024-02-28T05:20:13;14.43;;;9.07;;
6193;SDS011;3130;41.564;23.280;2024-02-28T05:22:41;16.43;;;9.67;;
6193;SDS011;3130;41.564;23.280;2024-02-28T05:25:09;12.83;;;8.13;;
6193;SDS011;3130;41.564;23.280;2024-02-28T05:27:36;15.63;;;9.20;;
6193;SDS011;3130;41.564;23.280;2024-02-28T05:30:04;17.40;;;9.33;;
6193;SDS011;3130;41.564;23.280;2024-02-28T05:32:33;12.90;;;9.77;;
6193;SDS011;3130;41.564;23.280;2024-02-28T05:35:04;14.10;;;9.20;;
6193;SDS011;3130;41.564;23.280;2024-02-28T05:37:32;12.93;;;9.77;;
6193;SDS011;3130;41.564;23.280;2024-02-28T05:40:00;16.70;;;10.70;;
6193;SDS011;3130;41.564;23.280;2024-02-28T05:42:27;16.03;;;11.60;;
6193;SDS011;3130;41.564;23.280;2024-02-28T05:44:54;14.83;;;10.40;;
6193;SDS011;3130;41.564;23.280;2024-02-28T05:47:22;9.60;;;7.67;;
6193;SDS011;3130;41.564;23.280;2024-02-28T05:49:51;11.83;;;7.73;;
6193;SDS011;3130;41.564;23.280;2024-02-28T05:52:21;11.60;;;7.47;;
6193;SDS011;3130;41.564;23.280;2024-02-28T05:54:48;11.90;;;8.77;;
6193;SDS011;3130;41.564;23.280;2024-02-28T05:57:16;11.83;;;7.63;;
6193;SDS011;3130;41.564;23.280;2024-02-28T05:59:43;14.53;;;7.97;;
6193;SDS011;3130;41.564;23.280;2024-02-28T06:02:11;9.10;;;7.33;;
6193;SDS011;3130;41.564;23.280;2024-02-28T06:04:38;22.77;;;15.17;;
6193;SDS011;3130;41.564;23.280;2024-02-28T06:07:07;11.33;;;9.10;;
6193;SDS011;3130;41.564;23.280;2024-02-28T06:09:35;16.17;;;12.57;;
6193;SDS011;3130;41.564;23.280;2024-02-28T06:12:03;16.20;;;14.50;;
6193;SDS011;3130;41.564;23.280;2024-02-28T06:14:31;18.57;;;13.63;;
6193;SDS011;3130;41.564;23.280;2024-02-28T06:16:58;11.50;;;9.07;;
6193;SDS011;3130;41.564;23.280;2024-02-28T06:19:29;14.67;;;8.97;;
6193;SDS011;3130;41.564;23.280;2024-02-28T06:21:58;13.50;;;9.27;;
6193;SDS011;3130;41.564;23.280;2024-02-28T06:24:27;14.40;;;8.70;;
6193;SDS011;3130;41.564;23.280;2024-02-28T06:26:54;25.40;;;16.37;;
6193;SDS011;3130;41.564;23.280;2024-02-28T06:29:22;15.87;;;11.57;;
6193;SDS011;3130;41.564;23.280;2024-02-28T06:31:50;15.13;;;13.03;;
6193;SDS011;3130;41.564;23.280;2024-02-28T06:34:18;23.97;;;14.40;;
6193;SDS011;3130;41.564;23.280;2024-02-28T06:36:45;32.10;;;20.57;;
6193;SDS011;3130;41.564;23.280;2024-02-28T06:39:13;28.83;;;19.17;;
6193;SDS011;3130;41.564;23.280;2024-02-28T06:41:42;28.53;;;16.67;;
6193;SDS011;3130;41.564;23.280;2024-02-28T06:44:10;32.83;;;20.87;;
6193;SDS011;3130;41.564;23.280;2024-02-28T06:46:37;27.23;;;17.23;;
6193;SDS011;3130;41.564;23.280;2024-02-28T06:49:05;27.70;;;17.47;;
6193;SDS011;3130;41.564;23.280;2024-02-28T06:51:32;27.20;;;16.33;;
6193;SDS011;3130;41.564;23.280;2024-02-28T06:54:00;27.73;;;17.57;;
6193;SDS011;3130;41.564;23.280;2024-02-28T06:56:29;26.70;;;16.73;;
6193;SDS011;3130;41.564;23.280;2024-02-28T06:58:59;29.83;;;18.07;;
6193;SDS011;3130;41.564;23.280;2024-02-28T07:01:26;26.60;;;17.97;;
6193;SDS011;3130;41.564;23.280;2024-02-28T07:03:54;23.00;;;16.93;;
6193;SDS011;3130;41.564;23.280;2024-02-28T07:06:21;28.60;;;16.47;;
6193;SDS011;3130;41.564;23.280;2024-02-28T07:08:49;20.93;;;15.23;;
6193;SDS011;3130;41.564;23.280;2024-02-28T07:11:16;22.97;;;14.80;;
6193;SDS011;3130;41.564;23.280;2024-02-28T07:13:44;21.90;;;13.53;;
6193;SDS011;3130;41.564;23.280;2024-02-28T07:16:13;30.60;;;16.67;;
6193;SDS011;3130;41.564;23.280;2024-02-28T07:18:40;24.97;;;15.07;;
6193;SDS011;3130;41.564;23.280;2024-02-28T07:21:08;25.97;;;14.97;;
6193;SDS011;3130;41.564;23.280;2024-02-28T07:23:38;23.10;;;17.07;;
6193;SDS011;3130;41.564;23.280;2024-02-28T07:26:07;23.03;;;16.63;;
6193;SDS011;3130;41.564;23.280;2024-02-28T07:28:35;24.97;;;18.47;;
6193;SDS011;3130;41.564;23.280;2024-02-28T07:31:03;23.60;;;17.13;;
6193;SDS011;3130;41.564;23.280;2024-02-28T07:33:32;25.07;;;19.17;;
6193;SDS011;3130;41.564;23.280;2024-02-28T07:35:59;29.67;;;18.47;;
6193;SDS011;3130;41.564;23.280;2024-02-28T07:38:26;33.20;;;22.50;;
6193;SDS011;3130;41.564;23.280;2024-02-28T07:40:54;33.10;;;24.80;;
6193;SDS011;3130;41.564;23.280;2024-02-28T07:43:21;38.93;;;25.30;;
6193;SDS011;3130;41.564;23.280;2024-02-28T07:45:49;40.40;;;23.50;;
6193;SDS011;3130;41.564;23.280;2024-02-28T07:48:17;34.67;;;21.20;;
6193;SDS011;3130;41.564;23.280;2024-02-28T07:50:46;37.03;;;23.73;;
6193;SDS011;3130;41.564;23.280;2024-02-28T07:53:14;39.33;;;23.03;;
6193;SDS011;3130;41.564;23.280;2024-02-28T07:55:41;32.27;;;23.53;;
6193;SDS011;3130;41.564;23.280;2024-02-28T07:58:09;31.37;;;21.30;;
6193;SDS011;3130;41.564;23.280;2024-02-28T08:00:36;34.53;;;22.73;;
6193;SDS011;3130;41.564;23.280;2024-02-28T08:03:04;30.97;;;21.97;;
6193;SDS011;3130;41.564;23.280;2024-02-28T08:05:32;30.63;;;21.77;;
6193;SDS011;3130;41.564;23.280;2024-02-28T08:08:06;32.93;;;19.50;;
6193;SDS011;3130;41.564;23.280;2024-02-28T08:10:33;25.97;;;19.53;;
6193;SDS011;3130;41.564;23.280;2024-02-28T08:13:01;23.73;;;17.77;;
6193;SDS011;3130;41.564;23.280;2024-02-28T08:15:28;27.87;;;19.27;;
6193;SDS011;3130;41.564;23.280;2024-02-28T08:17:56;25.67;;;18.70;;
6193;SDS011;3130;41.564;23.280;2024-02-28T08:20:27;32.93;;;23.30;;
6193;SDS011;3130;41.564;23.280;2024-02-28T08:22:54;29.17;;;21.80;;
6193;SDS011;3130;41.564;23.280;2024-02-28T08:25:23;25.53;;;18.80;;
6193;SDS011;3130;41.564;23.280;2024-02-28T08:27:51;22.97;;;18.93;;
6193;SDS011;3130;41.564;23.280;2024-02-28T08:30:18;25.17;;;21.33;;
6193;SDS011;3130;41.564;23.280;2024-02-28T08:32:45;25.50;;;19.50;;
6193;SDS011;3130;41.564;23.280;2024-02-28T08:35:13;18.80;;;14.07;;
6193;SDS011;3130;41.564;23.280;2024-02-28T08:37:40;16.43;;;12.30;;
6193;SDS011;3130;41.564;23.280;2024-02-28T08:40:08;15.37;;;11.50;;
6193;SDS011;3130;41.564;23.280;2024-02-28T08:42:37;14.23;;;11.27;;
6193;SDS011;3130;41.564;23.280;2024-02-28T08:45:07;14.30;;;11.37;;
6193;SDS011;3130;41.564;23.280;2024-02-28T08:47:35;18.77;;;9.50;;
6193;SDS011;3130;41.564;23.280;2024-02-28T08:50:02;15.97;;;10.70;;
6193;SDS011;3130;41.564;23.280;2024-02-28T08:52:32;14.13;;;10.13;;
6193;SDS011;3130;41.564;23.280;2024-02-28T08:55:00;14.70;;;10.10;;
6193;SDS011;3130;41.564;23.280;2024-02-28T08:57:32;11.77;;;9.93;;
6193;SDS011;3130;41.564;23.280;2024-02-28T09:00:01;13.00;;;8.90;;
6193;SDS011;3130;41.564;23.280;2024-02-28T09:02:29;15.37;;;10.67;;
6193;SDS011;3130;41.564;23.280;2024-02-28T09:04:57;14.10;;;9.97;;
6193;SDS011;3130;41.564;23.280;2024-02-28T09:07:24;11.73;;;9.97;;
6193;SDS011;3130;41.564;23.280;2024-02-28T09:09:51;10.57;;;8.73;;
6193;SDS011;3130;41.564;23.280;2024-02-28T09:12:19;16.37;;;10.90;;
6193;SDS011;3130;41.564;23.280;2024-02-28T09:14:47;15.00;;;10.07;;
6193;SDS011;3130;41.564;23.280;2024-02-28T09:17:23;12.97;;;8.40;;
6193;SDS011;3130;41.564;23.280;2024-02-28T09:19:50;14.00;;;8.43;;
6193;SDS011;3130;41.564;23.280;2024-02-28T09:22:19;15.07;;;10.43;;
6193;SDS011;3130;41.564;23.280;2024-02-28T09:24:46;14.57;;;8.83;;
6193;SDS011;3130;41.564;23.280;2024-02-28T09:27:14;14.43;;;9.20;;
6193;SDS011;3130;41.564;23.280;2024-02-28T09:29:45;17.27;;;10.50;;
6193;SDS011;3130;41.564;23.280;2024-02-28T09:35:12;20.20;;;11.03;;
6193;SDS011;3130;41.564;23.280;2024-02-28T09:38:12;13.90;;;9.77;;
6193;SDS011;3130;41.564;23.280;2024-02-28T09:40:55;13.20;;;9.90;;
6193;SDS011;3130;41.564;23.280;2024-02-28T09:43:24;17.87;;;10.87;;
6193;SDS011;3130;41.564;23.280;2024-02-28T09:45:56;16.37;;;10.43;;
6193;SDS011;3130;41.564;23.280;2024-02-28T09:48:27;17.80;;;11.40;;
6193;SDS011;3130;41.564;23.280;2024-02-28T09:51:00;14.83;;;9.90;;
6193;SDS011;3130;41.564;23.280;2024-02-28T09:53:27;14.73;;;9.80;;
6193;SDS011;3130;41.564;23.280;2024-02-28T09:55:55;15.40;;;9.03;;
6193;SDS011;3130;41.564;23.280;2024-02-28T09:58:22;13.17;;;8.40;;
6193;SDS011;3130;41.564;23.280;2024-02-28T10:00:50;16.10;;;9.63;;
6193;SDS011;3130;41.564;23.280;2024-02-28T10:06:35;13.80;;;8.40;;
6193;SDS011;3130;41.564;23.280;2024-02-28T10:09:50;9.97;;;7.13;;
6193;SDS011;3130;41.564;23.280;2024-02-28T10:15:30;14.13;;;8.90;;
6193;SDS011;3130;41.564;23.280;2024-02-28T10:18:25;11.73;;;8.70;;
6193;SDS011;3130;41.564;23.280;2024-02-28T10:20:53;12.57;;;8.00;;
6193;SDS011;3130;41.564;23.280;2024-02-28T10:23:24;10.63;;;7.23;;
6193;SDS011;3130;41.564;23.280;2024-02-28T10:26:00;9.10;;;6.97;;
6193;SDS011;3130;41.564;23.280;2024-02-28T10:28:31;8.27;;;6.23;;
6193;SDS011;3130;41.564;23.280;2024-02-28T10:31:06;10.23;;;7.23;;
6193;SDS011;3130;41.564;23.280;2024-02-28T10:33:56;10.53;;;7.40;;
6193;SDS011;3130;41.564;23.280;2024-02-28T10:36:36;12.47;;;7.63;;
6193;SDS011;3130;41.564;23.280;2024-02-28T10:39:06;10.97;;;7.27;;
6193;SDS011;3130;41.564;23.280;2024-02-28T10:41:36;8.57;;;6.00;;
6193;SDS011;3130;41.564;23.280;2024-02-28T10:44:18;11.40;;;6.57;;
6193;SDS011;3130;41.564;23.280;2024-02-28T10:47:06;8.43;;;7.13;;
6193;SDS011;3130;41.564;23.280;2024-02-28T10:50:15;9.03;;;6.90;;
6193;SDS011;3130;41.564;23.280;2024-02-28T10:52:51;10.90;;;7.60;;
6193;SDS011;3130;41.564;23.280;2024-02-28T11:02:23;10.33;;;6.07;;
6193;SDS011;3130;41.564;23.280;2024-02-28T11:04:54;10.60;;;6.80;;
6193;SDS011;3130;41.564;23.280;2024-02-28T11:07:23;12.93;;;6.77;;
6193;SDS011;3130;41.564;23.280;2024-02-28T11:09:53;10.00;;;6.07;;
6193;SDS011;3130;41.564;23.280;2024-02-28T11:12:25;11.00;;;6.70;;
6193;SDS011;3130;41.564;23.280;2024-02-28T11:14:59;9.23;;;6.53;;
6193;SDS011;3130;41.564;23.280;2024-02-28T11:17:28;11.63;;;5.87;;
6193;SDS011;3130;41.564;23.280;2024-02-28T11:19:56;6.70;;;5.20;;
6193;SDS011;3130;41.564;23.280;2024-02-28T11:22:27;6.57;;;5.87;;
6193;SDS011;3130;41.564;23.280;2024-02-28T11:24:54;8.03;;;6.83;;
6193;SDS011;3130;41.564;23.280;2024-02-28T11:27:22;8.90;;;6.87;;
6193;SDS011;3130;41.564;23.280;2024-02-28T11:29:50;7.33;;;6.30;;
6193;SDS011;3130;41.564;23.280;2024-02-28T11:32:19;7.47;;;6.37;;
6193;SDS011;3130;41.564;23.280;2024-02-28T11:34:47;13.00;;;6.60;;
6193;SDS011;3130;41.564;23.280;2024-02-28T11:37:16;12.30;;;6.50;;
6193;SDS011;3130;41.564;23.280;2024-02-28T11:39:49;6.93;;;6.20;;
6193;SDS011;3130;41.564;23.280;2024-02-28T11:42:16;10.10;;;6.33;;
6193;SDS011;3130;41.564;23.280;2024-02-28T11:44:54;9.43;;;6.20;;
6193;SDS011;3130;41.564;23.280;2024-02-28T11:47:27;9.77;;;5.93;;
6193;SDS011;3130;41.564;23.280;2024-02-28T11:49:57;8.17;;;6.07;;
6193;SDS011;3130;41.564;23.280;2024-02-28T11:52:26;8.23;;;6.30;;
6193;SDS011;3130;41.564;23.280;2024-02-28T11:54:53;8.93;;;6.30;;
6193;SDS011;3130;41.564;23.280;2024-02-28T11:57:21;9.30;;;7.50;;
6193;SDS011;3130;41.564;23.280;2024-02-28T11:59:49;11.37;;;7.30;;
6193;SDS011;3130;41.564;23.280;2024-02-28T12:02:17;8.87;;;6.30;;
6193;SDS011;3130;41.564;23.280;2024-02-28T12:04:46;8.03;;;6.17;;
6193;SDS011;3130;41.564;23.280;2024-02-28T12:07:15;6.80;;;5.50;;
6193;SDS011;3130;41.564;23.280;2024-02-28T12:09:43;11.23;;;6.97;;
6193;SDS011;3130;41.564;23.280;2024-02-28T12:12:11;9.40;;;6.40;;
6193;SDS011;3130;41.564;23.280;2024-02-28T12:14:39;13.43;;;7.93;;
6193;SDS011;3130;41.564;23.280;2024-02-28T12:17:13;9.00;;;6.37;;
6193;SDS011;3130;41.564;23.280;2024-02-28T12:19:49;6.80;;;6.10;;
6193;SDS011;3130;41.564;23.280;2024-02-28T12:22:16;8.50;;;6.10;;
6193;SDS011;3130;41.564;23.280;2024-02-28T12:24:44;8.07;;;6.27;;
6193;SDS011;3130;41.564;23.280;2024-02-28T12:27:24;8.53;;;5.70;;
6193;SDS011;3130;41.564;23.280;2024-02-28T12:30:00;9.70;;;6.20;;
6193;SDS011;3130;41.564;23.280;2024-02-28T12:32:27;8.00;;;6.73;;
6193;SDS011;3130;41.564;23.280;2024-02-28T12:35:00;8.40;;;5.97;;
6193;SDS011;3130;41.564;23.280;2024-02-28T12:37:38;7.00;;;5.60;;
6193;SDS011;3130;41.564;23.280;2024-02-28T12:43:11;9.53;;;6.93;;
6193;SDS011;3130;41.564;23.280;2024-02-28T12:45:54;8.37;;;5.87;;
6193;SDS011;3130;41.564;23.280;2024-02-28T12:52:36;7.20;;;4.77;;
6193;SDS011;3130;41.564;23.280;2024-02-28T12:55:04;9.00;;;4.47;;
6193;SDS011;3130;41.564;23.280;2024-02-28T12:57:31;6.23;;;4.90;;
6193;SDS011;3130;41.564;23.280;2024-02-28T12:59:58;9.93;;;5.37;;
6193;SDS011;3130;41.564;23.280;2024-02-28T13:02:26;7.53;;;5.70;;
6193;SDS011;3130;41.564;23.280;2024-02-28T13:07:45;10.87;;;7.03;;
6193;SDS011;3130;41.564;23.280;2024-02-28T13:10:13;9.43;;;5.60;;
6193;SDS011;3130;41.564;23.280;2024-02-28T13:15:26;9.40;;;6.57;;
6193;SDS011;3130;41.564;23.280;2024-02-28T13:18:08;8.13;;;5.53;;
6193;SDS011;3130;41.564;23.280;2024-02-28T13:20:44;10.33;;;6.57;;
6193;SDS011;3130;41.564;23.280;2024-02-28T13:23:13;12.77;;;8.67;;
6193;SDS011;3130;41.564;23.280;2024-02-28T13:25:41;12.03;;;7.60;;
6193;SDS011;3130;41.564;23.280;2024-02-28T13:28:09;11.03;;;7.53;;
6193;SDS011;3130;41.564;23.280;2024-02-28T13:30:41;13.43;;;8.67;;
6193;SDS011;3130;41.564;23.280;2024-02-28T13:33:15;11.37;;;7.63;;
6193;SDS011;3130;41.564;23.280;2024-02-28T13:35:49;16.10;;;8.70;;
6193;SDS011;3130;41.564;23.280;2024-02-28T13:38:20;13.17;;;9.40;;
6193;SDS011;3130;41.564;23.280;2024-02-28T13:40:48;11.60;;;9.33;;
6193;SDS011;3130;41.564;23.280;2024-02-28T13:43:17;11.07;;;7.37;;
6193;SDS011;3130;41.564;23.280;2024-02-28T13:45:46;11.07;;;6.97;;
6193;SDS011;3130;41.564;23.280;2024-02-28T13:48:17;7.93;;;6.47;;
6193;SDS011;3130;41.564;23.280;2024-02-28T13:50:49;10.27;;;6.77;;
6193;SDS011;3130;41.564;23.280;2024-02-28T13:53:19;10.87;;;5.77;;
6193;SDS011;3130;41.564;23.280;2024-02-28T13:55:50;9.60;;;7.07;;
6193;SDS011;3130;41.564;23.280;2024-02-28T13:58:18;11.83;;;6.47;;
6193;SDS011;3130;41.564;23.280;2024-02-28T14:00:49;10.77;;;7.10;;
6193;SDS011;3130;41.564;23.280;2024-02-28T14:03:16;10.03;;;6.77;;
6193;SDS011;3130;41.564;23.280;2024-02-28T14:05:44;10.00;;;6.83;;
6193;SDS011;3130;41.564;23.280;2024-02-28T14:10:44;8.40;;;6.87;;
6193;SDS011;3130;41.564;23.280;2024-02-28T14:13:13;9.53;;;7.43;;
6193;SDS011;3130;41.564;23.280;2024-02-28T14:15:46;9.50;;;6.90;;
6193;SDS011;3130;41.564;23.280;2024-02-28T14:18:18;7.07;;;6.37;;
6193;SDS011;3130;41.564;23.280;2024-02-28T14:20:48;8.47;;;6.53;;
6193;SDS011;3130;41.564;23.280;2024-02-28T14:23:18;8.70;;;5.93;;
6193;SDS011;3130;41.564;23.280;2024-02-28T14:25:49;7.90;;;6.80;;
6193;SDS011;3130;41.564;23.280;2024-02-28T14:28:19;15.40;;;7.53;;
6193;SDS011;3130;41.564;23.280;2024-02-28T14:30:52;9.67;;;6.73;;
6193;SDS011;3130;41.564;23.280;2024-02-28T14:33:21;11.27;;;7.23;;
6193;SDS011;3130;41.564;23.280;2024-02-28T14:35:49;16.00;;;9.30;;
6193;SDS011;3130;41.564;23.280;2024-02-28T14:38:22;24.30;;;16.67;;
6193;SDS011;3130;41.564;23.280;2024-02-28T14:40:53;22.63;;;15.13;;
6193;SDS011;3130;41.564;23.280;2024-02-28T14:43:40;13.40;;;8.80;;
6193;SDS011;3130;41.564;23.280;2024-02-28T14:46:08;10.27;;;7.70;;
6193;SDS011;3130;41.564;23.280;2024-02-28T14:48:36;12.67;;;8.87;;
6193;SDS011;3130;41.564;23.280;2024-02-28T14:51:04;11.50;;;8.47;;
6193;SDS011;3130;41.564;23.280;2024-02-28T14:53:33;15.07;;;9.00;;
6193;SDS011;3130;41.564;23.280;2024-02-28T14:56:03;11.30;;;8.13;;
6193;SDS011;3130;41.564;23.280;2024-02-28T14:58:31;13.00;;;7.73;;
6193;SDS011;3130;41.564;23.280;2024-02-28T15:01:00;13.23;;;8.93;;
6193;SDS011;3130;41.564;23.280;2024-02-28T15:03:30;12.10;;;8.47;;
6193;SDS011;3130;41.564;23.280;2024-02-28T15:05:58;13.53;;;7.97;;
6193;SDS011;3130;41.564;23.280;2024-02-28T15:08:45;10.87;;;9.77;;
6193;SDS011;3130;41.564;23.280;2024-02-28T15:11:17;13.53;;;9.93;;
6193;SDS011;3130;41.564;23.280;2024-02-28T15:13:44;13.73;;;11.57;;
6193;SDS011;3130;41.564;23.280;2024-02-28T15:16:12;18.40;;;12.83;;
6193;SDS011;3130;41.564;23.280;2024-02-28T15:18:40;14.90;;;12.83;;
6193;SDS011;3130;41.564;23.280;2024-02-28T15:21:08;17.33;;;13.37;;
6193;SDS011;3130;41.564;23.280;2024-02-28T15:23:36;17.97;;;13.60;;
6193;SDS011;3130;41.564;23.280;2024-02-28T15:26:07;22.10;;;17.97;;
6193;SDS011;3130;41.564;23.280;2024-02-28T15:28:35;24.40;;;17.47;;
6193;SDS011;3130;41.564;23.280;2024-02-28T15:31:02;18.13;;;13.57;;
6193;SDS011;3130;41.564;23.280;2024-02-28T15:33:30;18.10;;;15.80;;
6193;SDS011;3130;41.564;23.280;2024-02-28T15:35:58;21.80;;;18.47;;